Latest Weather Observations for Cape Naturaliste

IDW60801

Issued at 3:34 pm WST Tuesday 28 February 2017 (issued every 30 minutes, with the page automatically refreshed every 10 minutes)

About weather observations | Map of weather stations | Latest weather observations for WA | Other Formats
Station Details ID: 009519 Name: CAPE NATURALISTE Lat: -33.54 Lon: 115.02 Height: 109.0 m
Data from the previous 72 hours. | See also: Recent months at Cape Naturaliste
Date/Time
WST
Temp
°C
App
Temp
°C
Dew
Point
°C
Rel
Hum
%
Delta-T
°C
Wind Press
QNH
hPa
Press
MSL
hPa
Rain since
9am
mm
Dir  Spd
km/h
Gust
km/h
Spd
kts
Gust
kts
28/03:30pm 24.3 20.3 16.6 62 4.7 SSW 33 43 18 23 1014.3 1013.9 0.0
28/03:00pm 25.5 22.3 16.4 57 5.6 SSW 28 39 15 21 1014.4 1014.0 0.0
28/02:30pm 26.0 23.2 16.3 55 6.0 SSW 26 35 14 19 1014.6 1014.2 0.0
28/02:00pm 26.5 24.5 16.4 53 6.3 SSW 22 30 12 16 1014.8 1014.4 0.0
28/01:30pm 26.7 24.6 16.3 53 6.4 SW 22 30 12 16 1014.8 1014.4 0.0
28/01:00pm 26.0 23.6 16.5 55 5.9 SSW 24 35 13 19 1015.0 1014.6 0.0
28/12:30pm 25.9 23.8 16.2 55 6.0 SSW 22 32 12 17 1015.5 1015.1 0.0
28/12:00pm 26.5 24.6 16.7 55 6.1 SSW 22 32 12 17 1015.7 1015.3 0.0
28/11:30am 24.1 21.9 15.9 60 5.0 SSW 22 32 12 17 1016.3 1015.9 0.0
28/11:00am 24.2 22.0 15.9 59 5.1 SSW 22 30 12 16 1016.8 1016.5 0.0
28/10:30am 24.1 22.5 16.6 63 4.6 SSW 20 28 11 15 1017.2 1016.9 0.0
28/10:00am 23.9 23.6 15.4 59 5.1 SW 11 20 6 11 1017.4 1017.1 0.0
28/09:30am 24.5 24.5 14.3 53 6.1 ESE 7 17 4 9 1017.5 1017.2 0.0
28/09:00am 22.9 21.2 14.7 60 4.9 SE 17 24 9 13 1017.5 1017.2 0.0
28/08:30am 21.2 18.9 14.6 66 3.9 SE 20 30 11 16 1017.5 1017.2 0.0
28/08:00am 19.7 17.0 14.7 73 2.9 SE 22 32 12 17 1017.4 1017.1 0.0
28/07:30am 18.4 16.3 15.1 81 1.9 SE 20 28 11 15 1017.5 1017.2 0.0
28/07:00am 17.2 14.5 14.7 85 1.4 SSE 22 32 12 17 1017.6 1017.3 0.0
28/06:30am 16.6 14.1 14.1 85 1.4 SSE 20 30 11 16 1017.5 1017.2 0.0
28/06:00am 16.5 14.0 14.0 85 1.4 SSE 20 30 11 16 1017.2 1016.9 0.0
28/05:30am 16.4 13.8 13.9 85 1.4 SSE 20 28 11 15 1017.1 1016.8 0.0
28/05:00am 16.5 14.2 14.0 85 1.4 S 19 28 10 15 1016.8 1016.5 0.0
28/04:30am 16.5 14.2 14.2 86 1.3 S 19 26 10 14 1016.7 1016.4 0.0
28/04:00am 16.6 14.1 14.2 86 1.4 S 20 33 11 18 1016.5 1016.1 0.0
28/03:30am 16.7 14.3 14.3 86 1.4 S 20 30 11 16 1016.6 1016.3 0.0
28/03:00am 16.8 14.6 14.4 86 1.4 SSE 19 30 10 16 1016.7 1016.4 0.0
28/02:30am 16.9 14.5 14.5 86 1.4 SSE 20 30 11 16 1016.8 1016.5 0.0
28/02:00am 16.9 14.7 14.4 85 1.4 S 19 26 10 14 1017.0 1016.7 0.0
28/01:30am 17.1 15.3 14.4 84 1.6 S 17 28 9 15 1017.0 1016.7 0.0
28/01:00am 17.6 15.6 14.9 84 1.6 S 19 28 10 15 1017.3 1017.0 0.0
28/12:30am 17.8 16.6 15.1 84 1.6 S 15 28 8 15 1017.7 1017.4 0.0
28/12:00am 17.6 15.4 14.9 84 1.6 S 20 28 11 15 1017.7 1017.4 0.0
 
Date/Time
WST
Temp
°C
App
Temp
°C
Dew
Point
°C
Rel
Hum
%
Delta-T
°C
Wind Press
QNH
hPa
Press
MSL
hPa
Rain since
9am
mm
Dir  Spd
km/h
Gust
km/h
Spd
kts
Gust
kts
27/11:30pm 17.4 15.2 14.5 83 1.7 S 19 26 10 14 1017.7 1017.4 0.0
27/11:00pm 17.6 15.8 14.5 82 1.8 S 17 28 9 15 1017.5 1017.2 0.0
27/10:30pm 17.9 14.8 14.6 81 1.9 S 24 33 13 18 1017.3 1017.0 0.0
27/10:00pm 17.8 15.4 14.3 80 2.0 S 20 32 11 17 1017.4 1017.1 0.0
27/09:30pm 18.1 14.9 14.2 78 2.2 S 24 33 13 18 1017.4 1017.1 0.0
27/09:00pm 18.6 15.1 14.5 77 2.4 S 26 35 14 19 1017.2 1016.9 0.0
27/08:30pm 19.1 14.6 15.0 77 2.4 SSW 32 43 17 23 1017.0 1016.7 0.0
27/08:00pm 19.3 15.7 15.2 77 2.4 SSW 28 35 15 19 1016.3 1015.9 0.0
27/07:30pm 19.3 14.7 16.2 82 1.9 SSW 35 46 19 25 1016.0 1015.6 0.0
27/07:26pm 19.2 14.6 16.1 82 1.9 SSW 35 54 19 29 1015.9 1015.5 0.0
27/07:00pm 19.4 14.4 16.2 82 1.9 SSW 37 50 20 27 1015.4 1015.0 0.0
27/06:30pm 19.7 15.6 16.0 79 2.2 SSW 32 43 17 23 1015.4 1015.0 0.0
27/06:00pm 20.2 16.3 15.6 75 2.7 SSW 30 43 16 23 1015.2 1014.8 0.0
27/05:30pm 21.3 19.4 15.8 71 3.3 SSW 20 28 11 15 1015.1 1014.7 0.0
27/05:00pm 20.3 15.5 15.5 74 2.9 SSW 35 46 19 25 1015.1 1014.7 0.0
27/04:30pm 20.7 15.9 15.7 73 3.0 SSW 35 44 19 24 1015.3 1014.9 0.0
27/04:00pm 20.5 16.3 15.7 74 2.9 SSW 32 43 17 23 1015.3 1014.9 0.0
27/03:30pm 21.2 16.4 15.7 71 3.3 SSW 35 44 19 24 1015.4 1015.0 0.0
27/03:00pm 20.9 16.5 15.2 70 3.4 SSW 32 43 17 23 1015.6 1015.2 0.0
27/02:44pm 21.8 18.5 16.1 70 3.5 SSW 28 46 15 25 1015.6 1015.2 0.0
27/02:30pm 21.7 17.9 15.8 69 3.6 SSW 30 39 16 21 1015.6 1015.2 0.0
27/02:00pm 22.2 18.8 15.8 67 3.9 SSW 28 39 15 21 1015.7 1015.3 0.0
27/01:30pm 22.5 19.2 16.1 67 3.9 SW 28 37 15 20 1015.8 1015.4 0.0
27/01:00pm 22.0 18.8 15.4 66 3.9 SW 26 33 14 18 1015.9 1015.5 0.0
27/12:30pm 22.8 20.0 15.4 63 4.4 SW 24 32 13 17 1016.1 1015.7 0.0
27/12:00pm 24.3 22.9 16.6 62 4.7 SW 19 24 10 13 1016.4 1016.0 0.0
27/11:30am 24.2 22.6 14.9 56 5.6 WSW 17 24 9 13 1016.5 1016.1 0.0
27/11:00am 25.3 24.8 13.8 49 6.8 SW 9 17 5 9 1016.8 1016.5 0.0
27/10:30am 23.7 23.2 12.7 50 6.3 W 7 13 4 7 1016.9 1016.6 0.0
27/10:00am 23.0 22.4 13.5 55 5.5 ENE 9 13 5 7 1017.1 1016.8 0.0
27/09:30am 22.5 21.5 13.3 56 5.3 ESE 11 15 6 8 1017.0 1016.7 0.0
27/09:00am 20.9 18.4 13.6 63 4.2 E 19 22 10 12 1016.9 1016.6 0.0
27/08:30am 22.3 20.2 12.5 53 5.6 SE 15 20 8 11 1016.6 1016.3 0.0
27/08:00am 19.5 17.3 12.0 62 4.2 SSE 15 22 8 12 1016.4 1016.0 0.0
27/07:30am 18.8 16.1 12.8 68 3.4 SE 19 26 10 14 1016.1 1015.7 0.0
27/07:00am 17.4 14.6 12.7 74 2.6 SE 19 22 10 12 1016.1 1015.7 0.0
27/06:30am 16.0 12.9 12.2 78 2.1 SE 20 28 11 15 1015.8 1015.4 0.0
27/06:00am 15.6 12.6 12.5 82 1.7 SE 20 26 11 14 1015.6 1015.2 0.0
27/05:30am 15.5 12.7 13.2 86 1.3 SSE 20 26 11 14 1015.2 1014.8 0.0
27/05:00am 15.4 12.3 13.4 88 1.1 SSE 22 30 12 16 1015.2 1014.8 0.0
27/04:30am 14.8 12.1 12.8 88 1.1 SSE 19 24 10 13 1015.0 1014.6 0.0
27/04:00am 14.9 12.6 12.9 88 1.1 SSE 17 24 9 13 1015.0 1014.6 0.0
27/03:30am 15.3 12.5 13.3 88 1.1 SE 20 26 11 14 1015.0 1014.6 0.0
27/03:00am 15.3 12.7 13.3 88 1.1 SSE 19 24 10 13 1015.2 1014.8 0.0
27/02:30am 15.6 13.1 13.4 87 1.2 SSE 19 24 10 13 1015.2 1014.8 0.0
27/02:00am 15.9 12.9 13.7 87 1.2 SSE 22 26 12 14 1015.4 1015.0 0.0
27/01:30am 15.8 13.1 13.6 87 1.2 SSE 20 24 11 13 1015.4 1015.0 0.0
27/01:00am 16.0 13.9 13.7 86 1.3 SSE 17 20 9 11 1015.5 1015.1 0.0
27/12:30am 16.1 13.6 13.6 85 1.4 SSE 19 24 10 13 1015.3 1014.9 0.0
27/12:00am 16.1 13.9 13.4 84 1.5 S 17 20 9 11 1015.4 1015.0 0.0
 
Date/Time
WST
Temp
°C
App
Temp
°C
Dew
Point
°C
Rel
Hum
%
Delta-T
°C
Wind Press
QNH
hPa
Press
MSL
hPa
Rain since
9am
mm
Dir  Spd
km/h
Gust
km/h
Spd
kts
Gust
kts
26/11:30pm 16.4 14.6 13.3 82 1.7 SSE 15 22 8 12 1015.4 1015.0 0.0
26/11:00pm 16.9 14.2 13.6 81 1.9 S 20 30 11 16 1015.3 1014.9 0.0
26/10:30pm 16.7 13.8 13.0 79 2.1 S 20 28 11 15 1015.5 1015.1 0.0
26/10:00pm 16.8 14.0 13.1 79 2.1 S 20 28 11 15 1015.4 1015.0 0.0
26/09:30pm 16.9 12.6 13.2 79 2.1 SSW 28 32 15 17 1015.3 1014.9 0.0
26/09:00pm 17.3 13.5 13.6 79 2.1 S 26 32 14 17 1015.3 1014.9 0.0
26/08:30pm 17.6 14.2 13.7 78 2.2 SSW 24 32 13 17 1015.2 1014.8 0.0
26/08:00pm 17.9 14.5 13.6 76 2.4 SSW 24 32 13 17 1014.8 1014.4 0.0
26/07:30pm 18.3 13.7 13.6 74 2.7 SSW 30 41 16 22 1014.4 1014.0 0.0
26/07:00pm 18.6 14.3 13.2 71 3.1 SSW 28 39 15 21 1014.4 1014.0 0.0
26/06:30pm 19.5 14.4 13.7 69 3.3 SSW 33 46 18 25 1013.8 1013.4 0.0
26/06:00pm 20.0 14.6 13.9 68 3.5 SSW 35 50 19 27 1013.6 1013.2 0.0
26/05:36pm 20.5 14.8 14.2 67 3.7 SSW 37 56 20 30 1013.3 1012.9 0.0
26/05:30pm 20.6 14.9 14.3 67 3.7 SSW 37 50 20 27 1013.3 1012.9 0.0
26/05:00pm 21.1 15.4 14.3 65 4.0 SSW 37 50 20 27 1013.2 1012.8 0.0
26/04:30pm 21.6 15.7 14.7 65 4.1 SSW 39 52 21 28 1013.0 1012.6 0.0
26/04:00pm 22.0 16.4 14.4 62 4.5 SSW 37 54 20 29 1012.9 1012.5 0.0
26/03:30pm 22.6 16.6 14.4 60 4.8 SSW 39 52 21 28 1012.8 1012.4 0.0
26/03:00pm 22.6 17.1 14.7 61 4.7 SSW 37 52 20 28 1012.9 1012.5 0.0
26/02:36pm 22.5 16.2 14.6 61 4.7 SSW 41 59 22 32 1012.8 1012.4 0.0
26/02:30pm 22.5 16.6 14.6 61 4.7 SSW 39 54 21 29 1012.8 1012.4 0.0
26/02:00pm 22.9 17.9 15.0 61 4.7 SSW 35 50 19 27 1013.0 1012.6 0.0
26/01:30pm 23.0 17.6 15.1 61 4.7 SSW 37 52 20 28 1013.1 1012.7 0.0
26/01:00pm 23.2 17.9 15.3 61 4.7 SSW 37 52 20 28 1012.9 1012.5 0.0
26/12:30pm 22.6 17.5 14.7 61 4.7 SSW 35 50 19 27 1013.0 1012.6 0.0
26/12:00pm 23.1 18.0 15.7 63 4.5 SSW 37 46 20 25 1013.1 1012.7 0.0
26/11:30am 22.5 17.3 14.6 61 4.7 SSW 35 48 19 26 1013.4 1013.0 0.0
26/11:00am 22.4 17.3 13.7 58 5.1 SSW 33 46 18 25 1013.3 1012.9 0.0
26/10:30am 22.6 17.4 14.4 60 4.8 SSW 35 46 19 25 1013.3 1012.9 0.0
26/10:00am 21.6 16.9 14.3 63 4.3 SSW 32 43 17 23 1013.3 1012.9 0.0
26/09:30am 21.4 17.8 14.1 63 4.3 SSW 26 35 14 19 1013.3 1012.9 0.0
26/09:00am 21.6 18.8 14.3 63 4.3 S 22 30 12 16 1013.3 1012.9 0.0
26/08:30am 19.8 16.3 14.4 71 3.1 S 26 33 14 18 1013.6 1013.2 0.0
26/08:00am 18.1 14.6 14.6 80 2.0 S 26 33 14 18 1013.7 1013.3 0.0
26/07:30am 16.7 13.9 14.2 85 1.4 S 22 32 12 17 1013.7 1013.3 0.0
26/07:00am 15.6 13.4 13.4 87 1.2 SSW 17 22 9 12 1013.9 1013.5 0.0
26/06:30am 15.1 12.2 13.0 87 1.2 S 20 26 11 14 1013.1 1012.7 0.0
26/06:00am 15.0 12.1 12.9 87 1.2 SSW 20 26 11 14 1013.1 1012.7 0.0
26/05:30am 14.8 12.0 12.5 86 1.3 SSE 19 24 10 13 1012.4 1012.0 0.0
26/05:00am 14.9 12.1 12.6 86 1.3 S 19 28 10 15 1012.5 1012.1 0.0
26/04:30am 15.3 12.0 12.8 85 1.4 SSW 22 30 12 16 1012.5 1012.1 0.0
26/04:00am 14.9 12.8 12.4 85 1.4 S 15 20 8 11 1012.3 1011.9 0.0
26/03:30am 15.0 12.6 12.5 85 1.4 S 17 24 9 13 1012.4 1012.0 0.0
26/03:00am 15.3 12.0 12.8 85 1.4 S 22 28 12 15 1012.5 1012.1 0.0
26/02:30am 15.1 13.1 12.6 85 1.4 S 15 20 8 11 1012.8 1012.4 0.0
26/02:00am 15.4 13.1 12.9 85 1.4 SSE 17 24 9 13 1012.8 1012.4 0.0
26/01:30am 15.5 13.6 13.0 85 1.4 S 15 19 8 10 1013.1 1012.7 0.0
26/01:00am 15.8 13.2 13.3 85 1.4 S 19 24 10 13 1013.0 1012.6 0.0
26/12:30am 16.0 13.5 13.5 85 1.4 S 19 24 10 13 1013.2 1012.8 0.0
26/12:00am 16.2 13.7 13.5 84 1.5 S 19 30 10 16 1013.3 1012.9 0.0
 
Date/Time
WST
Temp
°C
App
Temp
°C
Dew
Point
°C
Rel
Hum
%
Delta-T
°C
Wind Press
QNH
hPa
Press
MSL
hPa
Rain since
9am
mm
Dir  Spd
km/h
Gust
km/h
Spd
kts
Gust
kts
25/11:30pm 16.7 12.7 14.2 85 1.4 S 28 41 15 22 1013.0 1012.6 0.0
25/11:00pm 16.9 13.4 14.4 85 1.4 S 26 35 14 19 1013.2 1012.8 0.0
25/10:30pm 17.0 14.3 14.6 86 1.4 S 22 35 12 19 1013.3 1012.9 0.0
25/10:00pm 17.2 13.4 14.8 86 1.4 S 28 35 15 19 1013.4 1013.0 0.0
25/09:30pm 17.5 14.3 15.3 87 1.3 SSW 26 37 14 20 1013.3 1012.9 0.0
25/09:00pm 18.1 13.0 15.9 87 1.3 SSW 37 46 20 25 1012.9 1012.5 0.0
25/08:30pm 18.6 14.1 16.4 87 1.3 SSW 35 44 19 24 1012.5 1012.1 0.0
25/08:00pm 18.7 14.6 16.5 87 1.3 SSW 33 44 18 24 1012.2 1011.8 0.0
25/07:30pm 18.9 14.4 16.5 86 1.4 SSW 35 46 19 25 1012.3 1011.9 0.0
25/07:00pm 19.0 14.4 16.2 84 1.7 SSW 35 43 19 23 1012.2 1011.8 0.0
25/06:30pm 19.7 14.8 16.3 81 2.0 SSW 37 50 20 27 1012.0 1011.6 0.0
25/06:00pm 20.9 16.9 16.1 74 2.9 SSW 32 39 17 21 1012.2 1011.8 0.0
25/05:30pm 22.8 20.0 16.4 67 3.9 SSW 26 37 14 20 1012.4 1012.0 0.0
25/05:00pm 24.6 23.0 16.6 61 4.9 SSW 20 26 11 14 1012.6 1012.2 0.0
25/04:30pm 25.3 23.6 16.2 57 5.6 SW 20 26 11 14 1012.8 1012.4 0.0
25/04:00pm 27.6 25.7 14.3 44 8.0 SW 17 24 9 13 1012.9 1012.5 0.0

Other Formats:

Comma delimited format used in spreadsheet applications
http://www.bom.gov.au/fwo/IDW60801/IDW60801.94600.axf

JavaScript Object Notation format (JSON) in row-major order
http://www.bom.gov.au/fwo/IDW60801/IDW60801.94600.json